首页
METAR-TAF:

METAR-TAF

机场 :

Asheboro Regional Airport

阿什伯勒, 北卡罗来纳州, 美国

纬度: 35-39-14N, 经度: 079-53-42W, 海拔: 205米

当前天气观测

该预报发布于18分钟前的10:15 UTC
风速3节,风向东北
温度 19°C
湿度 94%
气压 1021 hPa
能見度: 16.1公里
阴天层高于6000英尺

METAR: KHBI 261015Z AUTO 05003KT 10SM OVC060 19/18 A3016 RMK AO2 T01900181

时间: 06:33 (10:33 UTC)


TAF: 丢失

超过4000个机场的气象观测和天气预报(METAR&TAF报告)。

可查询的气象台以黄色和红色小点在地图上表示。

将鼠标移到小点上方,可查看气象台名称。

然后点击查看天气观测和预报。

如需切换地图:点击带黑十字的绿色按钮放大地图;点击带横线的绿色按钮缩小地图;或者点击绿色箭头查看邻近地区的地图。


METAR-TAF: